Terminal Aerodrome Forecast
Issued by NWS Duluth, MN

Home | Current Version | Previous Version | Text Only | Print | Product List | Glossary On
Versions: 1 2 3 4 5 6 7 8 9 10 11 12 13 14 15 16 17 18 19 20 21 22 23 24 25
000
FTUS43 KDLH 232000 AAA
TAFDLH
TAF AMD
KDLH 232004Z 2320/2418 24008KT P6SM SKC
      TEMPO 2320/2321 BKN008
     FM240600 23005KT 4SM BR SKC
     FM241400 22005KT P6SM SKC=

USA.gov is the U.S. government's official web portal to all federal, state and local government web resources and services.